createdAt,value
2018-11-28T00:00:09.769Z,85.12
2018-11-28T00:02:37.912Z,84.94
2018-11-28T00:05:09.126Z,85.40
2018-11-28T00:07:37.276Z,85.12
2018-11-28T00:10:09.693Z,84.36
2018-11-28T00:12:38.484Z,84.69
2018-11-28T00:15:08.136Z,84.93
2018-11-28T00:17:36.759Z,85.01
2018-11-28T00:20:06.549Z,84.91
2018-11-28T00:22:34.836Z,85.48
2018-11-28T00:25:03.046Z,85.41
2018-11-28T00:27:31.285Z,85.27
2018-11-28T00:29:59.568Z,84.14
2018-11-28T00:32:27.870Z,84.28
2018-11-28T00:34:56.150Z,83.65
2018-11-28T00:37:24.473Z,83.85
2018-11-28T00:39:52.626Z,83.83
2018-11-28T00:42:21.035Z,84.51
2018-11-28T00:44:49.248Z,84.76
2018-11-28T00:47:17.487Z,84.12
2018-11-28T00:49:45.705Z,83.97
2018-11-28T00:52:13.912Z,84.72
2018-11-28T00:54:42.142Z,84.28
2018-11-28T00:57:10.307Z,83.28
2018-11-28T00:59:38.519Z,82.68
2018-11-28T01:02:06.778Z,83.42
2018-11-28T01:04:35.015Z,83.19
2018-11-28T01:07:03.220Z,83.54
2018-11-28T01:09:31.470Z,83.70
2018-11-28T01:11:59.664Z,82.58
2018-11-28T01:14:28.014Z,82.90
2018-11-28T01:16:56.650Z,81.58
2018-11-28T01:19:24.991Z,82.66
2018-11-28T01:21:53.253Z,82.59
2018-11-28T01:24:21.525Z,82.66
2018-11-28T01:26:49.721Z,82.11
2018-11-28T01:29:17.884Z,82.25
2018-11-28T01:31:46.054Z,82.38
2018-11-28T01:34:14.236Z,80.72
2018-11-28T01:36:42.500Z,81.30
2018-11-28T01:39:10.657Z,81.23
2018-11-28T01:41:38.809Z,82.00
2018-11-28T01:44:07.211Z,81.43
2018-11-28T01:46:35.416Z,81.40
2018-11-28T01:49:03.566Z,81.38
2018-11-28T01:51:31.751Z,81.52
2018-11-28T01:53:59.977Z,81.96
2018-11-28T01:56:28.112Z,81.45
2018-11-28T01:58:56.269Z,81.55
2018-11-28T02:01:24.401Z,81.95
2018-11-28T02:03:52.702Z,81.81
2018-11-28T02:06:20.922Z,82.13
2018-11-28T02:08:49.064Z,81.81
2018-11-28T02:11:17.201Z,82.11
2018-11-28T02:13:45.471Z,82.49
2018-11-28T02:16:13.677Z,82.78
2018-11-28T02:18:41.819Z,84.47
2018-11-28T02:21:09.976Z,85.19
2018-11-28T02:23:38.209Z,86.38
2018-11-28T02:26:06.382Z,84.75
2018-11-28T02:28:34.536Z,84.34
2018-11-28T02:31:02.769Z,84.55
2018-11-28T02:33:30.926Z,84.30
2018-11-28T02:35:59.066Z,83.69
2018-11-28T02:38:27.245Z,84.47
2018-11-28T02:40:55.551Z,84.58
2018-11-28T02:43:23.738Z,83.66
2018-11-28T02:46:03.200Z,84.02
2018-11-28T02:48:31.399Z,83.17
2018-11-28T02:50:59.701Z,84.02
2018-11-28T02:53:27.848Z,84.07
2018-11-28T02:55:56.179Z,85.13
2018-11-28T02:58:24.303Z,88.18
2018-11-28T03:00:52.529Z,88.03
2018-11-28T03:03:21.379Z,86.82
2018-11-28T03:05:48.926Z,86.68
2018-11-28T03:08:17.096Z,86.07
2018-11-28T03:10:45.382Z,85.81
2018-11-28T03:13:13.559Z,85.45
2018-11-28T03:15:44.057Z,85.76
2018-11-28T03:18:12.309Z,85.36
2018-11-28T03:20:40.522Z,84.82
2018-11-28T03:23:08.745Z,84.76
2018-11-28T03:25:36.980Z,84.92
2018-11-28T03:28:05.161Z,85.06
2018-11-28T03:30:33.362Z,83.79
2018-11-28T03:33:01.497Z,83.36
2018-11-28T03:35:29.767Z,84.00
2018-11-28T03:37:57.947Z,83.87
2018-11-28T03:40:26.478Z,84.36
2018-11-28T03:42:54.658Z,84.41
2018-11-28T03:45:22.875Z,84.69
2018-11-28T03:47:51.009Z,84.29
2018-11-28T03:50:19.157Z,84.06
2018-11-28T03:52:47.318Z,83.56
2018-11-28T03:55:16.237Z,84.10
2018-11-28T03:57:45.590Z,83.74
2018-11-28T04:00:14.875Z,84.87
2018-11-28T04:02:43.072Z,85.12
2018-11-28T04:05:12.471Z,84.59
2018-11-28T04:07:40.745Z,85.11
2018-11-28T04:10:10.734Z,85.22
2018-11-28T04:12:39.406Z,84.36
2018-11-28T04:15:12.431Z,84.23
2018-11-28T04:17:40.602Z,85.04
2018-11-28T04:20:10.623Z,84.82
2018-11-28T04:22:38.764Z,84.95
2018-11-28T04:25:08.079Z,84.48
2018-11-28T04:27:36.234Z,83.47
2018-11-28T04:30:05.275Z,82.80
2018-11-28T04:32:33.420Z,82.90
2018-11-28T04:35:01.628Z,82.77
2018-11-28T04:37:29.885Z,83.36
2018-11-28T04:39:58.044Z,82.77
2018-11-28T04:42:26.221Z,82.76
2018-11-28T04:44:54.458Z,82.92
2018-11-28T04:47:22.647Z,83.28
2018-11-28T04:49:50.847Z,82.67
2018-11-28T04:52:22.363Z,82.75
2018-11-28T04:54:50.569Z,82.74
2018-11-28T04:57:18.699Z,82.80
2018-11-28T04:59:46.916Z,82.54
2018-11-28T05:02:15.084Z,82.75
2018-11-28T05:04:43.258Z,83.20
2018-11-28T05:07:30.781Z,84.03
2018-11-28T05:09:59.462Z,83.26
2018-11-28T05:12:27.697Z,82.89
2018-11-28T05:14:55.979Z,84.46
2018-11-28T05:17:25.041Z,83.82
2018-11-28T05:19:53.192Z,83.33
2018-11-28T05:22:21.413Z,85.72
2018-11-28T05:24:50.026Z,86.53
2018-11-28T05:27:18.215Z,85.65
2018-11-28T05:29:46.416Z,85.57
2018-11-28T05:32:14.585Z,86.81
2018-11-28T05:34:42.854Z,86.17
2018-11-28T05:37:11.055Z,86.61
2018-11-28T05:39:39.302Z,87.10
2018-11-28T05:42:07.450Z,88.25
2018-11-28T05:44:35.743Z,87.57
2018-11-28T05:47:04.018Z,86.98
2018-11-28T05:49:32.305Z,87.78
2018-11-28T05:52:00.583Z,87.24
2018-11-28T05:54:28.846Z,87.65
2018-11-28T05:56:57.124Z,87.08
2018-11-28T05:59:27.567Z,87.55
2018-11-28T06:01:53.710Z,88.52
2018-11-28T06:04:21.852Z,89.00
2018-11-28T06:06:50.068Z,88.76
2018-11-28T06:09:18.226Z,89.12
2018-11-28T06:11:47.074Z,88.86
2018-11-28T06:14:16.027Z,89.41
2018-11-28T06:16:44.266Z,89.27
2018-11-28T06:19:13.190Z,89.63
2018-11-28T06:21:41.427Z,88.95
2018-11-28T06:24:09.678Z,90.11
2018-11-28T06:26:37.837Z,90.45
2018-11-28T06:29:06.654Z,90.22
2018-11-28T06:31:34.828Z,89.93
2018-11-28T06:34:03.451Z,90.76
2018-11-28T06:36:31.682Z,90.80
2018-11-28T06:38:59.850Z,89.96
2018-11-28T06:41:29.091Z,90.61
2018-11-28T06:43:57.280Z,90.58
2018-11-28T06:46:25.419Z,90.52
2018-11-28T06:48:53.575Z,90.17
2018-11-28T06:51:21.803Z,90.53
2018-11-28T06:53:50.022Z,91.13
2018-11-28T06:56:18.214Z,90.03
2018-11-28T06:58:46.537Z,90.83
2018-11-28T07:01:14.796Z,90.75
2018-11-28T07:03:42.952Z,90.77
2018-11-28T07:06:11.129Z,90.63
2018-11-28T07:08:39.276Z,90.78
2018-11-28T07:11:07.452Z,90.74
2018-11-28T07:13:35.676Z,90.29
2018-11-28T07:16:03.847Z,90.58
2018-11-28T07:18:43.480Z,90.83
2018-11-28T07:21:11.912Z,90.23
2018-11-28T07:23:40.084Z,91.59
2018-11-28T07:26:08.247Z,91.30
2018-11-28T07:28:36.466Z,90.70
2018-11-28T07:31:04.700Z,90.52
2018-11-28T07:33:33.466Z,90.61
2018-11-28T07:36:01.618Z,91.61
2018-11-28T07:38:29.832Z,90.77
2018-11-28T07:40:57.984Z,89.92
2018-11-28T07:43:26.186Z,90.93
2018-11-28T07:45:54.350Z,91.02
2018-11-28T07:48:22.578Z,90.51
2018-11-28T07:50:50.812Z,90.37
2018-11-28T07:53:19.334Z,90.31
2018-11-28T07:55:47.483Z,91.14
2018-11-28T07:58:15.725Z,91.91
2018-11-28T08:00:45.094Z,91.21
2018-11-28T08:03:13.243Z,91.09
2018-11-28T08:05:41.483Z,91.00
2018-11-28T08:08:10.688Z,89.78
2018-11-28T08:10:38.923Z,90.97
2018-11-28T08:13:07.745Z,91.90
2018-11-28T08:15:35.953Z,91.74
2018-11-28T08:18:04.093Z,91.92
2018-11-28T08:20:32.239Z,90.47
2018-11-28T08:23:00.717Z,90.45
2018-11-28T08:25:29.007Z,89.59
2018-11-28T08:27:57.374Z,90.13
2018-11-28T08:30:26.454Z,89.58
2018-11-28T08:32:55.500Z,89.52
2018-11-28T08:35:23.865Z,90.27
2018-11-28T08:37:52.114Z,90.33
2018-11-28T08:40:22.784Z,89.69
2018-11-28T08:42:51.185Z,90.62
2018-11-28T08:45:20.234Z,90.54
2018-11-28T08:47:49.499Z,89.88
2018-11-28T08:50:19.892Z,88.95
2018-11-28T08:52:48.544Z,90.09
2018-11-28T08:55:16.752Z,89.44
2018-11-28T08:57:45.016Z,90.82
2018-11-28T09:00:15.133Z,89.99
2018-11-28T09:02:43.705Z,90.79
2018-11-28T09:05:13.056Z,90.14
2018-11-28T09:07:41.239Z,89.80
2018-11-28T09:10:13.611Z,90.62
2018-11-28T09:12:41.889Z,89.83
2018-11-28T09:15:14.121Z,90.29
2018-11-28T09:17:42.359Z,89.89
2018-11-28T09:20:11.824Z,90.45
2018-11-28T09:22:39.994Z,89.56
2018-11-28T09:25:10.687Z,89.54
2018-11-28T09:27:38.877Z,89.04
2018-11-28T09:30:10.501Z,89.98
2018-11-28T09:32:38.691Z,89.52
2018-11-28T09:35:08.338Z,90.83
2018-11-28T09:37:36.520Z,89.55
2018-11-28T09:40:10.004Z,89.92
2018-11-28T09:42:42.315Z,89.36
2018-11-28T09:45:12.068Z,91.64
2018-11-28T09:47:40.352Z,88.77
2018-11-28T09:50:10.769Z,89.61
2018-11-28T09:52:39.034Z,88.96
2018-11-28T09:55:09.112Z,89.46
2018-11-28T09:57:37.316Z,89.63
2018-11-28T10:00:08.861Z,89.45
2018-11-28T10:02:37.069Z,89.29
2018-11-28T10:05:06.542Z,89.96
2018-11-28T10:07:34.795Z,89.76
2018-11-28T10:10:03.131Z,89.50
2018-11-28T10:12:31.390Z,89.35
2018-11-28T10:14:59.576Z,89.66
2018-11-28T10:17:27.751Z,90.63
2018-11-28T10:19:56.006Z,90.03
2018-11-28T10:22:24.172Z,90.34
2018-11-28T10:24:52.358Z,89.56
2018-11-28T10:27:20.582Z,90.91
2018-11-28T10:29:48.821Z,90.47
2018-11-28T10:32:17.002Z,90.34
2018-11-28T10:34:45.289Z,91.87
2018-11-28T10:37:14.294Z,90.93
2018-11-28T10:39:42.472Z,89.86
2018-11-28T10:42:10.807Z,91.06
2018-11-28T10:44:39.081Z,90.15
2018-11-28T10:47:07.349Z,89.65
2018-11-28T10:49:35.644Z,89.82
2018-11-28T10:52:03.900Z,89.73
2018-11-28T10:54:32.166Z,89.91
2018-11-28T10:57:00.405Z,88.91
2018-11-28T10:59:28.617Z,88.56
2018-11-28T11:02:02.129Z,88.60
2018-11-28T11:04:35.790Z,88.59
2018-11-28T11:07:09.253Z,88.64
2018-11-28T11:09:42.705Z,89.39
2018-11-28T11:12:16.106Z,89.61
2018-11-28T11:14:46.939Z,89.82
2018-11-28T11:17:15.229Z,90.48
2018-11-28T11:19:43.507Z,89.18
2018-11-28T11:22:11.692Z,90.10
2018-11-28T11:24:39.977Z,90.08
2018-11-28T11:27:09.566Z,90.36
2018-11-28T11:29:37.737Z,88.21
2018-11-28T11:32:05.978Z,88.37
2018-11-28T11:34:34.151Z,89.63
2018-11-28T11:37:02.345Z,88.96
2018-11-28T11:39:31.189Z,89.53
2018-11-28T11:41:59.349Z,88.93
2018-11-28T11:44:27.589Z,89.54
2018-11-28T11:46:55.785Z,88.66
2018-11-28T11:49:24.038Z,90.00
2018-11-28T11:51:52.316Z,88.38
2018-11-28T11:54:20.510Z,89.17
2018-11-28T11:56:48.758Z,90.55
2018-11-28T11:59:16.929Z,92.36
2018-11-28T12:01:45.159Z,89.56
2018-11-28T12:04:13.409Z,91.46
2018-11-28T12:06:41.657Z,90.20
2018-11-28T12:09:10.230Z,90.14
2018-11-28T12:11:38.409Z,90.61
2018-11-28T12:14:06.810Z,89.74
2018-11-28T12:16:35.100Z,89.75
2018-11-28T12:19:03.364Z,90.06
2018-11-28T12:21:31.535Z,90.68
2018-11-28T12:23:59.766Z,90.86
2018-11-28T12:26:27.968Z,91.42
2018-11-28T12:28:56.138Z,90.54
2018-11-28T12:31:24.422Z,89.80
2018-11-28T12:33:52.590Z,91.29
2018-11-28T12:36:20.766Z,90.09
2018-11-28T12:38:49.005Z,91.18
2018-11-28T12:41:17.278Z,90.79
2018-11-28T12:43:45.390Z,90.55
2018-11-28T12:46:13.646Z,90.64
2018-11-28T12:48:41.842Z,89.30
2018-11-28T12:51:10.101Z,89.75
2018-11-28T12:53:38.424Z,89.24
2018-11-28T12:56:06.657Z,89.63
2018-11-28T12:58:34.942Z,90.91
2018-11-28T13:01:03.882Z,90.04
2018-11-28T13:03:32.105Z,89.49
2018-11-28T13:06:00.385Z,89.56
2018-11-28T13:08:28.580Z,89.65
2018-11-28T13:10:56.824Z,89.61
2018-11-28T13:13:24.995Z,89.32
2018-11-28T13:15:53.212Z,88.63
2018-11-28T13:18:21.449Z,89.76
2018-11-28T13:20:49.720Z,88.88
2018-11-28T13:23:17.936Z,87.81
2018-11-28T13:25:46.167Z,88.41
2018-11-28T13:28:14.548Z,89.57
2018-11-28T13:30:42.756Z,88.88
2018-11-28T13:33:10.994Z,90.20
2018-11-28T13:35:39.184Z,89.30
2018-11-28T13:38:11.493Z,88.62
2018-11-28T13:40:39.829Z,88.25
2018-11-28T13:43:08.102Z,89.75
2018-11-28T13:45:38.746Z,89.77
2018-11-28T13:48:07.004Z,90.57
2018-11-28T13:50:35.199Z,90.37
2018-11-28T13:53:06.568Z,90.16
2018-11-28T13:55:38.363Z,90.73
2018-11-28T13:58:05.388Z,90.91
2018-11-28T14:00:33.627Z,90.02
2018-11-28T14:03:01.888Z,89.70
2018-11-28T14:05:30.182Z,89.45
2018-11-28T14:07:58.444Z,89.30
2018-11-28T14:10:26.625Z,89.35
2018-11-28T14:12:55.961Z,90.57
2018-11-28T14:15:24.321Z,90.43
2018-11-28T14:18:01.085Z,90.94
2018-11-28T14:20:29.300Z,90.96
2018-11-28T14:22:57.513Z,90.39
2018-11-28T14:25:25.896Z,89.92
2018-11-28T14:27:53.939Z,90.56
2018-11-28T14:30:23.331Z,90.05
2018-11-28T14:32:52.106Z,90.76
2018-11-28T14:35:20.834Z,91.06
2018-11-28T14:37:49.182Z,90.47
2018-11-28T14:40:22.397Z,91.28
2018-11-28T14:42:52.728Z,91.13
2018-11-28T14:45:20.987Z,91.72
2018-11-28T14:47:50.178Z,91.60
2018-11-28T14:50:28.310Z,92.23
2018-11-28T14:52:58.680Z,92.01
2018-11-28T14:55:33.133Z,91.29
2018-11-28T14:58:01.432Z,92.33
2018-11-28T15:00:30.442Z,92.72
2018-11-28T15:03:11.764Z,93.30
2018-11-28T15:07:49.473Z,93.21
2018-11-28T15:10:18.201Z,93.51
2018-11-28T15:12:46.375Z,93.15
2018-11-28T15:15:15.110Z,93.57
2018-11-28T15:17:43.277Z,93.26
2018-11-28T15:20:11.486Z,93.99
2018-11-28T15:22:39.680Z,94.52
2018-11-28T15:25:09.498Z,94.87
2018-11-28T15:27:37.682Z,94.26
2018-11-28T15:30:07.303Z,94.61
2018-11-28T15:32:35.546Z,94.97
2018-11-28T15:35:03.870Z,94.64
2018-11-28T15:37:32.089Z,94.86
2018-11-28T15:40:00.286Z,94.33
2018-11-28T15:42:28.593Z,94.32
2018-11-28T15:44:56.773Z,94.21
2018-11-28T15:47:25.012Z,94.37
2018-11-28T15:49:53.201Z,94.29
2018-11-28T15:52:21.452Z,94.29
2018-11-28T15:54:49.622Z,94.12
2018-11-28T15:57:18.255Z,95.02
2018-11-28T15:59:46.430Z,94.78
2018-11-28T16:02:14.666Z,94.53
2018-11-28T16:04:42.852Z,94.57
2018-11-28T16:07:11.100Z,94.29
2018-11-28T16:09:44.729Z,94.32
2018-11-28T16:12:13.704Z,94.45
2018-11-28T16:14:41.873Z,94.27
2018-11-28T16:17:10.089Z,93.88
2018-11-28T16:19:38.286Z,93.40
2018-11-28T16:22:06.492Z,94.05
2018-11-28T16:24:34.791Z,93.88
2018-11-28T16:27:03.048Z,94.16
2018-11-28T16:29:31.425Z,93.97
2018-11-28T16:31:59.693Z,94.97
2018-11-28T16:34:27.869Z,94.14
2018-11-28T16:36:56.062Z,94.25
2018-11-28T16:39:24.249Z,93.53
2018-11-28T16:41:52.588Z,93.01
2018-11-28T16:44:20.789Z,92.49
2018-11-28T16:46:49.044Z,93.17
2018-11-28T16:49:17.221Z,92.89
2018-11-28T16:51:46.383Z,93.03
2018-11-28T16:54:14.605Z,93.57
2018-11-28T16:56:42.881Z,93.51
2018-11-28T16:59:11.050Z,93.37
2018-11-28T17:01:39.351Z,93.58
2018-11-28T17:04:08.460Z,93.37
2018-11-28T17:06:36.678Z,94.55
2018-11-28T17:09:07.558Z,94.01
2018-11-28T17:11:36.452Z,94.86
2018-11-28T17:14:04.903Z,94.66
2018-11-28T17:16:33.124Z,94.07
2018-11-28T17:19:02.385Z,94.45
2018-11-28T17:21:30.665Z,93.82
2018-11-28T17:23:58.846Z,94.29
2018-11-28T17:26:27.223Z,94.31
2018-11-28T17:28:55.466Z,93.76
2018-11-28T17:31:24.202Z,94.53
2018-11-28T17:33:53.936Z,94.55
2018-11-28T17:36:22.165Z,94.95
2018-11-28T17:38:50.384Z,95.11
2018-11-28T17:41:18.729Z,95.12
2018-11-28T17:43:46.926Z,95.12
2018-11-28T17:46:15.142Z,95.13
2018-11-28T17:48:43.342Z,95.54
2018-11-28T17:51:11.591Z,95.28
2018-11-28T17:53:39.762Z,94.56
2018-11-28T17:56:07.960Z,94.78
2018-11-28T17:58:36.129Z,95.38
2018-11-28T18:01:04.304Z,95.11
2018-11-28T18:03:33.457Z,95.72
2018-11-28T18:06:01.753Z,95.15
2018-11-28T18:08:29.932Z,95.76
2018-11-28T18:11:10.193Z,95.93
2018-11-28T18:13:39.621Z,95.99
2018-11-28T18:16:07.142Z,95.66
2018-11-28T18:18:35.327Z,95.93
2018-11-28T18:21:03.497Z,95.61
2018-11-28T18:23:34.244Z,95.22
2018-11-28T18:26:06.861Z,95.63
2018-11-28T18:28:36.867Z,95.03
2018-11-28T18:31:06.976Z,94.80
2018-11-28T18:33:36.068Z,94.73
2018-11-28T18:36:04.298Z,94.94
2018-11-28T18:38:32.685Z,94.93
2018-11-28T18:41:01.408Z,94.83
2018-11-28T18:43:29.565Z,95.28
2018-11-28T18:45:58.172Z,94.30
2018-11-28T18:48:26.096Z,95.26
2018-11-28T18:50:54.277Z,94.62
2018-11-28T18:53:22.994Z,94.30
2018-11-28T18:55:51.407Z,95.27
2018-11-28T18:58:19.713Z,95.45
2018-11-28T19:00:48.025Z,95.26
2018-11-28T19:03:17.956Z,94.89
2018-11-28T19:05:47.602Z,95.25
2018-11-28T19:08:17.390Z,95.41
2018-11-28T19:10:47.668Z,95.09
2018-11-28T19:13:18.183Z,95.29
2018-11-28T19:15:45.762Z,95.32
2018-11-28T19:18:14.018Z,95.10
2018-11-28T19:20:42.256Z,95.65
2018-11-28T19:23:10.549Z,95.19
2018-11-28T19:25:38.823Z,95.42
2018-11-28T19:28:07.030Z,95.62
2018-11-28T19:30:37.326Z,95.32
2018-11-28T19:33:07.130Z,95.24
2018-11-28T19:35:35.400Z,95.27
2018-11-28T19:38:03.585Z,94.94
2018-11-28T19:40:34.826Z,95.09
2018-11-28T19:43:03.039Z,94.45
2018-11-28T19:45:31.165Z,94.67
2018-11-28T19:47:59.374Z,94.62
2018-11-28T19:50:29.140Z,94.72
2018-11-28T19:52:57.333Z,94.30
2018-11-28T19:55:25.538Z,94.16
2018-11-28T19:57:53.806Z,94.71
2018-11-28T20:00:22.054Z,94.81
2018-11-28T20:02:50.239Z,94.93
2018-11-28T20:05:18.422Z,95.04
2018-11-28T20:07:49.740Z,94.85
2018-11-28T20:10:20.089Z,94.52
2018-11-28T20:12:48.377Z,94.19
2018-11-28T20:15:21.829Z,94.83
2018-11-28T20:17:50.426Z,94.13
2018-11-28T20:20:18.713Z,93.80
2018-11-28T20:22:46.898Z,94.04
2018-11-28T20:25:16.071Z,94.38
2018-11-28T20:27:45.593Z,93.97
2018-11-28T20:30:17.429Z,94.27
2018-11-28T20:32:45.679Z,94.28
2018-11-28T20:35:13.893Z,94.82
2018-11-28T20:37:42.514Z,94.80
2018-11-28T20:40:13.843Z,94.94
2018-11-28T20:42:44.363Z,94.63
2018-11-28T20:45:12.717Z,94.80
2018-11-28T20:47:41.007Z,95.01
2018-11-28T20:50:12.565Z,94.64
2018-11-28T20:52:41.650Z,94.79
2018-11-28T20:55:10.623Z,94.19
2018-11-28T20:57:41.792Z,94.62
2018-11-28T21:00:27.510Z,94.45
2018-11-28T21:02:55.752Z,94.24
2018-11-28T21:05:24.022Z,93.92
2018-11-28T21:07:52.266Z,94.04
2018-11-28T21:10:25.939Z,94.42
2018-11-28T21:12:54.132Z,93.99
2018-11-28T21:15:22.302Z,94.15
2018-11-28T21:17:50.630Z,94.50
2018-11-28T21:20:21.194Z,94.63
2018-11-28T21:22:51.676Z,94.34
2018-11-28T21:25:19.832Z,94.44
2018-11-28T21:27:48.100Z,94.32
2018-11-28T21:30:17.747Z,94.33
2018-11-28T21:33:17.481Z,94.26
2018-11-28T21:35:53.173Z,93.76
2018-11-28T21:38:23.719Z,93.83
2018-11-28T21:40:52.024Z,94.03
2018-11-28T21:43:20.919Z,93.89
2018-11-28T21:45:50.138Z,93.59
2018-11-28T21:48:18.479Z,92.95
2018-11-28T21:50:46.673Z,92.33
2018-11-28T21:53:14.919Z,92.32
2018-11-28T21:55:43.209Z,92.16
2018-11-28T21:58:11.510Z,92.36
2018-11-28T22:00:39.752Z,92.14
2018-11-28T22:03:08.526Z,91.85
2018-11-28T22:05:36.965Z,91.68
2018-11-28T22:08:05.317Z,92.69
2018-11-28T22:10:33.657Z,92.59
2018-11-28T22:13:02.937Z,92.90
2018-11-28T22:15:31.157Z,92.91
2018-11-28T22:17:59.533Z,93.20
2018-11-28T22:20:27.890Z,93.21
2018-11-28T22:22:56.085Z,93.04
2018-11-28T22:25:26.448Z,93.26
2018-11-28T22:27:54.856Z,93.74
2018-11-28T22:30:25.265Z,93.53
2018-11-28T22:32:53.446Z,93.43
2018-11-28T22:35:21.628Z,93.74
2018-11-28T22:37:49.799Z,93.72
2018-11-28T22:40:24.019Z,93.58
2018-11-28T22:42:52.273Z,93.42
2018-11-28T22:45:28.676Z,94.07
2018-11-28T22:47:56.906Z,93.13
2018-11-28T22:50:25.126Z,92.94
2018-11-28T22:52:53.401Z,93.26
2018-11-28T22:55:21.626Z,92.92
2018-11-28T22:57:50.125Z,92.39
2018-11-28T23:00:28.028Z,92.00
2018-11-28T23:03:03.683Z,92.39
2018-11-28T23:05:38.875Z,92.59
2018-11-28T23:08:08.449Z,92.33
2018-11-28T23:10:37.420Z,91.95
2018-11-28T23:13:06.329Z,92.16
2018-11-28T23:15:34.647Z,92.79
2018-11-28T23:18:02.845Z,92.23
2018-11-28T23:20:31.152Z,92.24
2018-11-28T23:22:59.341Z,91.85
2018-11-28T23:25:27.513Z,92.00
2018-11-28T23:27:55.795Z,91.95
2018-11-28T23:30:23.962Z,92.87
2018-11-28T23:32:53.689Z,92.56
2018-11-28T23:35:22.252Z,92.58
2018-11-28T23:37:50.627Z,92.81
2018-11-28T23:40:20.811Z,93.06
2018-11-28T23:42:49.240Z,93.18
2018-11-28T23:45:19.555Z,93.04
2018-11-28T23:47:48.126Z,92.70
2018-11-28T23:50:18.635Z,92.68
2018-11-28T23:52:48.067Z,92.69
2018-11-28T23:55:26.930Z,92.71
2018-11-28T23:57:55.310Z,92.57
